sensor_id;sensor_type;location;lat;lon;timestamp;pressure;altitude;pressure_sealevel;temperature;humidity
68712;BME280;55690;51.566;19.198;2023-04-27T00:01:13;101782.84;;;6.16;71.39
68712;BME280;55690;51.566;19.198;2023-04-27T00:05:15;101802.33;;;6.01;72.05
68712;BME280;55690;51.566;19.198;2023-04-27T00:09:20;101800.34;;;6.06;71.68
68712;BME280;55690;51.566;19.198;2023-04-27T00:13:26;101794.80;;;6.32;71.00
68712;BME280;55690;51.566;19.198;2023-04-27T00:17:32;101798.66;;;6.25;71.31
68712;BME280;55690;51.566;19.198;2023-04-27T00:21:38;101799.26;;;6.10;71.96
68712;BME280;55690;51.566;19.198;2023-04-27T00:25:44;101795.68;;;6.33;71.38
68712;BME280;55690;51.566;19.198;2023-04-27T00:29:50;101799.14;;;6.13;72.29
68712;BME280;55690;51.566;19.198;2023-04-27T00:33:57;101801.24;;;6.28;72.05
68712;BME280;55690;51.566;19.198;2023-04-27T00:38:03;101789.35;;;6.11;71.76
68712;BME280;55690;51.566;19.198;2023-04-27T00:42:10;101806.90;;;5.99;72.46
68712;BME280;55690;51.566;19.198;2023-04-27T00:46:19;101806.52;;;6.08;72.05
68712;BME280;55690;51.566;19.198;2023-04-27T00:50:27;101808.61;;;6.02;72.46
68712;BME280;55690;51.566;19.198;2023-04-27T00:54:32;101806.14;;;5.95;72.59
68712;BME280;55690;51.566;19.198;2023-04-27T00:58:34;101813.52;;;5.90;72.64
68712;BME280;55690;51.566;19.198;2023-04-27T01:02:40;101812.41;;;5.96;72.39
68712;BME280;55690;51.566;19.198;2023-04-27T01:06:46;101813.71;;;5.84;72.83
68712;BME280;55690;51.566;19.198;2023-04-27T01:10:52;101814.39;;;5.91;72.55
68712;BME280;55690;51.566;19.198;2023-04-27T01:14:59;101814.92;;;5.76;73.10
68712;BME280;55690;51.566;19.198;2023-04-27T01:19:06;101810.30;;;5.79;73.20
68712;BME280;55690;51.566;19.198;2023-04-27T01:23:14;101818.05;;;5.88;72.51
68712;BME280;55690;51.566;19.198;2023-04-27T01:27:17;101817.15;;;5.89;72.50
68712;BME280;55690;51.566;19.198;2023-04-27T01:31:23;101818.50;;;5.76;73.07
68712;BME280;55690;51.566;19.198;2023-04-27T01:35:29;101809.76;;;5.69;72.88
68712;BME280;55690;51.566;19.198;2023-04-27T01:39:36;101814.38;;;5.66;73.01
68712;BME280;55690;51.566;19.198;2023-04-27T01:43:42;101814.92;;;5.76;72.63
68712;BME280;55690;51.566;19.198;2023-04-27T01:47:51;101820.97;;;5.82;72.70
68712;BME280;55690;51.566;19.198;2023-04-27T01:51:54;101824.99;;;5.71;72.84
68712;BME280;55690;51.566;19.198;2023-04-27T01:56:00;101822.88;;;5.55;73.53
68712;BME280;55690;51.566;19.198;2023-04-27T02:00:08;101815.43;;;5.37;73.84
68712;BME280;55690;51.566;19.198;2023-04-27T02:04:13;101829.35;;;5.50;72.75
68712;BME280;55690;51.566;19.198;2023-04-27T02:08:19;101823.89;;;5.26;73.61
68712;BME280;55690;51.566;19.198;2023-04-27T02:12:25;101820.98;;;5.32;73.17
68712;BME280;55690;51.566;19.198;2023-04-27T02:16:31;101823.20;;;5.46;73.09
68712;BME280;55690;51.566;19.198;2023-04-27T02:20:38;101829.47;;;5.47;73.23
68712;BME280;55690;51.566;19.198;2023-04-27T02:24:44;101829.99;;;5.31;73.06
68712;BME280;55690;51.566;19.198;2023-04-27T02:28:50;101831.55;;;5.39;72.77
68712;BME280;55690;51.566;19.198;2023-04-27T02:32:59;101825.95;;;5.45;72.50
68712;BME280;55690;51.566;19.198;2023-04-27T02:37:03;101830.51;;;5.43;72.30
68712;BME280;55690;51.566;19.198;2023-04-27T02:41:08;101841.98;;;4.96;73.72
68712;BME280;55690;51.566;19.198;2023-04-27T02:45:15;101830.45;;;5.19;73.23
68712;BME280;55690;51.566;19.198;2023-04-27T02:49:21;101833.07;;;5.71;72.26
68712;BME280;55690;51.566;19.198;2023-04-27T02:53:28;101828.84;;;5.63;72.47
68712;BME280;55690;51.566;19.198;2023-04-27T02:57:33;101838.24;;;5.77;72.45
68712;BME280;55690;51.566;19.198;2023-04-27T03:01:39;101832.52;;;5.86;71.85
68712;BME280;55690;51.566;19.198;2023-04-27T03:05:46;101830.68;;;5.63;72.36
68712;BME280;55690;51.566;19.198;2023-04-27T03:09:52;101838.30;;;5.75;72.08
68712;BME280;55690;51.566;19.198;2023-04-27T03:13:58;101840.99;;;5.75;72.12
68712;BME280;55690;51.566;19.198;2023-04-27T03:18:04;101841.58;;;5.60;72.04
68712;BME280;55690;51.566;19.198;2023-04-27T03:22:10;101846.34;;;5.52;72.75
68712;BME280;55690;51.566;19.198;2023-04-27T03:26:17;101848.70;;;5.36;73.03
68712;BME280;55690;51.566;19.198;2023-04-27T03:30:23;101857.08;;;5.27;73.24
68712;BME280;55690;51.566;19.198;2023-04-27T03:34:29;101867.17;;;5.20;73.64
68712;BME280;55690;51.566;19.198;2023-04-27T03:38:36;101857.58;;;5.13;73.74
68712;BME280;55690;51.566;19.198;2023-04-27T03:42:41;101864.73;;;5.14;74.09
68712;BME280;55690;51.566;19.198;2023-04-27T03:46:47;101863.84;;;5.14;74.14
68712;BME280;55690;51.566;19.198;2023-04-27T03:50:54;101876.97;;;5.23;74.42
68712;BME280;55690;51.566;19.198;2023-04-27T03:55:00;101882.69;;;5.14;75.07
68712;BME280;55690;51.566;19.198;2023-04-27T03:59:06;101872.00;;;5.37;74.65
68712;BME280;55690;51.566;19.198;2023-04-27T04:03:12;101869.25;;;5.39;74.99
68712;BME280;55690;51.566;19.198;2023-04-27T04:07:18;101873.39;;;5.49;74.78
68712;BME280;55690;51.566;19.198;2023-04-27T04:11:24;101880.12;;;5.62;74.44
68712;BME280;55690;51.566;19.198;2023-04-27T04:15:31;101880.12;;;5.62;74.47
68712;BME280;55690;51.566;19.198;2023-04-27T04:19:37;101884.53;;;5.38;75.24
68712;BME280;55690;51.566;19.198;2023-04-27T04:23:43;101890.22;;;5.29;76.15
68712;BME280;55690;51.566;19.198;2023-04-27T04:27:50;101884.22;;;5.72;75.39
68712;BME280;55690;51.566;19.198;2023-04-27T04:31:55;101889.07;;;5.87;74.85
68712;BME280;55690;51.566;19.198;2023-04-27T04:36:03;101896.65;;;6.03;74.91
68712;BME280;55690;51.566;19.198;2023-04-27T04:40:09;101901.16;;;6.25;74.74
68712;BME280;55690;51.566;19.198;2023-04-27T04:44:15;101904.73;;;6.73;74.79
68712;BME280;55690;51.566;19.198;2023-04-27T04:48:20;101908.83;;;7.05;74.01
68712;BME280;55690;51.566;19.198;2023-04-27T04:52:27;101905.80;;;7.12;74.99
68712;BME280;55690;51.566;19.198;2023-04-27T04:56:33;101901.92;;;7.61;73.72
68712;BME280;55690;51.566;19.198;2023-04-27T05:00:39;101900.02;;;7.84;73.62
68712;BME280;55690;51.566;19.198;2023-04-27T05:04:45;101903.20;;;8.14;72.84
68712;BME280;55690;51.566;19.198;2023-04-27T05:08:51;101900.47;;;8.34;73.12
68712;BME280;55690;51.566;19.198;2023-04-27T05:12:57;101904.28;;;8.67;71.71
68712;BME280;55690;51.566;19.198;2023-04-27T05:17:03;101914.34;;;8.65;72.44
68712;BME280;55690;51.566;19.198;2023-04-27T05:21:16;101904.00;;;8.92;72.04
68712;BME280;55690;51.566;19.198;2023-04-27T05:25:21;101917.17;;;9.36;71.03
68712;BME280;55690;51.566;19.198;2023-04-27T05:29:23;101913.38;;;9.92;70.54
68712;BME280;55690;51.566;19.198;2023-04-27T05:33:28;101910.65;;;10.26;68.98
68712;BME280;55690;51.566;19.198;2023-04-27T05:37:34;101908.83;;;10.76;68.71
68712;BME280;55690;51.566;19.198;2023-04-27T05:41:41;101907.24;;;11.03;66.93
68712;BME280;55690;51.566;19.198;2023-04-27T05:45:47;101903.78;;;11.31;66.87
68712;BME280;55690;51.566;19.198;2023-04-27T05:49:54;101911.95;;;11.77;65.64
68712;BME280;55690;51.566;19.198;2023-04-27T05:53:59;101906.34;;;11.80;65.60
68712;BME280;55690;51.566;19.198;2023-04-27T05:58:05;101915.39;;;12.53;64.79
68712;BME280;55690;51.566;19.198;2023-04-27T06:02:12;101914.38;;;12.96;63.78
68712;BME280;55690;51.566;19.198;2023-04-27T06:06:18;101908.86;;;13.11;63.26
68712;BME280;55690;51.566;19.198;2023-04-27T06:10:24;101906.88;;;13.93;61.36
68712;BME280;55690;51.566;19.198;2023-04-27T06:14:30;101905.59;;;13.59;61.02
68712;BME280;55690;51.566;19.198;2023-04-27T06:18:36;101904.25;;;13.92;60.83
68712;BME280;55690;51.566;19.198;2023-04-27T06:22:42;101902.60;;;14.91;59.80
68712;BME280;55690;51.566;19.198;2023-04-27T06:26:49;101898.86;;;15.28;60.02
68712;BME280;55690;51.566;19.198;2023-04-27T06:30:55;101887.48;;;14.98;59.45
68712;BME280;55690;51.566;19.198;2023-04-27T06:35:01;101902.77;;;14.26;60.71
68712;BME280;55690;51.566;19.198;2023-04-27T06:39:07;101899.57;;;14.32;60.78
68712;BME280;55690;51.566;19.198;2023-04-27T06:43:13;101907.98;;;15.16;59.89
68712;BME280;55690;51.566;19.198;2023-04-27T06:47:19;101897.48;;;15.47;59.68
68712;BME280;55690;51.566;19.198;2023-04-27T06:51:26;101895.32;;;15.39;58.71
68712;BME280;55690;51.566;19.198;2023-04-27T06:55:32;101891.98;;;16.06;58.71
68712;BME280;55690;51.566;19.198;2023-04-27T06:59:38;101898.23;;;16.19;57.81
68712;BME280;55690;51.566;19.198;2023-04-27T07:03:44;101897.45;;;16.06;56.53
68712;BME280;55690;51.566;19.198;2023-04-27T07:07:50;101898.29;;;16.41;55.54
68712;BME280;55690;51.566;19.198;2023-04-27T07:11:56;101899.01;;;17.21;55.96
68712;BME280;55690;51.566;19.198;2023-04-27T07:16:03;101904.45;;;16.10;55.47
68712;BME280;55690;51.566;19.198;2023-04-27T07:20:09;101911.85;;;15.85;55.87
68712;BME280;55690;51.566;19.198;2023-04-27T07:24:15;101911.79;;;15.98;55.77
68712;BME280;55690;51.566;19.198;2023-04-27T07:28:21;101915.52;;;16.66;54.84
68712;BME280;55690;51.566;19.198;2023-04-27T07:32:27;101916.21;;;16.34;55.35
68712;BME280;55690;51.566;19.198;2023-04-27T07:36:33;101918.18;;;16.21;55.06
68712;BME280;55690;51.566;19.198;2023-04-27T07:40:40;101923.20;;;16.49;54.88
68712;BME280;55690;51.566;19.198;2023-04-27T07:44:46;101910.14;;;17.52;54.73
68712;BME280;55690;51.566;19.198;2023-04-27T07:48:52;101905.00;;;17.70;53.81
68712;BME280;55690;51.566;19.198;2023-04-27T07:52:58;101909.23;;;17.74;53.05
68712;BME280;55690;51.566;19.198;2023-04-27T07:57:10;101913.35;;;18.72;52.69
68712;BME280;55690;51.566;19.198;2023-04-27T08:01:12;101908.80;;;16.81;52.81
68712;BME280;55690;51.566;19.198;2023-04-27T08:05:17;101924.11;;;16.94;53.77
68712;BME280;55690;51.566;19.198;2023-04-27T08:09:23;101910.12;;;17.09;54.02
68712;BME280;55690;51.566;19.198;2023-04-27T08:13:29;101905.28;;;16.45;53.84
68712;BME280;55690;51.566;19.198;2023-04-27T08:17:35;101917.05;;;15.77;54.53
68712;BME280;55690;51.566;19.198;2023-04-27T08:21:41;101913.91;;;15.47;55.46
68712;BME280;55690;51.566;19.198;2023-04-27T08:25:47;101915.28;;;15.28;55.69
68712;BME280;55690;51.566;19.198;2023-04-27T08:29:54;101911.34;;;16.26;54.89
68712;BME280;55690;51.566;19.198;2023-04-27T08:34:00;101907.60;;;15.10;54.58
68712;BME280;55690;51.566;19.198;2023-04-27T08:38:06;101915.77;;;15.46;55.21
68712;BME280;55690;51.566;19.198;2023-04-27T08:42:13;101918.91;;;15.53;55.36
68712;BME280;55690;51.566;19.198;2023-04-27T08:46:22;101915.59;;;15.60;55.03
68712;BME280;55690;51.566;19.198;2023-04-27T08:50:26;101914.27;;;15.66;54.94
68712;BME280;55690;51.566;19.198;2023-04-27T08:54:31;101917.17;;;15.52;55.39
68712;BME280;55690;51.566;19.198;2023-04-27T08:58:37;101923.80;;;15.00;55.13
68712;BME280;55690;51.566;19.198;2023-04-27T09:02:44;101916.85;;;16.38;55.19
68712;BME280;55690;51.566;19.198;2023-04-27T09:06:49;101912.36;;;16.37;53.14
68712;BME280;55690;51.566;19.198;2023-04-27T09:10:55;101917.63;;;16.05;53.39
68712;BME280;55690;51.566;19.198;2023-04-27T09:15:03;101923.10;;;16.05;54.04
68712;BME280;55690;51.566;19.198;2023-04-27T09:19:08;101917.17;;;15.76;52.98
68712;BME280;55690;51.566;19.198;2023-04-27T09:27:31;101906.66;;;15.93;52.80
68712;BME280;55690;51.566;19.198;2023-04-27T09:34:47;101916.64;;;15.71;52.60
68712;BME280;55690;51.566;19.198;2023-04-27T09:38:50;101914.38;;;15.64;53.47
68712;BME280;55690;51.566;19.198;2023-04-27T09:42:57;101917.38;;;15.96;52.93
68712;BME280;55690;51.566;19.198;2023-04-27T09:46:59;101918.09;;;15.63;52.89
68712;BME280;55690;51.566;19.198;2023-04-27T09:51:01;101929.59;;;15.08;53.12
68712;BME280;55690;51.566;19.198;2023-04-27T09:55:06;101932.87;;;15.13;54.28
68712;BME280;55690;51.566;19.198;2023-04-27T10:03:32;101932.91;;;14.88;55.50
68712;BME280;55690;51.566;19.198;2023-04-27T10:07:38;101929.59;;;15.08;55.60
68712;BME280;55690;51.566;19.198;2023-04-27T10:11:42;101923.73;;;15.25;54.67
68712;BME280;55690;51.566;19.198;2023-04-27T10:15:44;101930.02;;;15.39;53.87
68712;BME280;55690;51.566;19.198;2023-04-27T10:19:53;101932.57;;;15.29;54.25
68712;BME280;55690;51.566;19.198;2023-04-27T10:24:05;101926.52;;;15.37;53.17
68712;BME280;55690;51.566;19.198;2023-04-27T10:28:06;101929.87;;;15.16;52.45
68712;BME280;55690;51.566;19.198;2023-04-27T10:32:20;101923.96;;;15.59;52.52
68712;BME280;55690;51.566;19.198;2023-04-27T10:36:32;101924.51;;;15.51;52.43
68712;BME280;55690;51.566;19.198;2023-04-27T10:40:36;101915.83;;;15.81;52.91
68712;BME280;55690;51.566;19.198;2023-04-27T10:44:38;101931.38;;;15.81;52.01
68712;BME280;55690;51.566;19.198;2023-04-27T10:48:41;101924.53;;;16.21;52.87
68712;BME280;55690;51.566;19.198;2023-04-27T10:52:43;101932.71;;;15.99;51.84
68712;BME280;55690;51.566;19.198;2023-04-27T10:56:46;101932.90;;;15.85;51.11
68712;BME280;55690;51.566;19.198;2023-04-27T11:00:48;101924.65;;;16.20;50.55
68712;BME280;55690;51.566;19.198;2023-04-27T11:04:49;101939.88;;;15.89;51.47
68712;BME280;55690;51.566;19.198;2023-04-27T11:08:51;101933.41;;;15.90;51.07
68712;BME280;55690;51.566;19.198;2023-04-27T11:12:53;101929.75;;;15.54;51.08
68712;BME280;55690;51.566;19.198;2023-04-27T11:16:54;101925.44;;;15.63;50.66
68712;BME280;55690;51.566;19.198;2023-04-27T11:21:05;101927.52;;;15.83;50.32
68712;BME280;55690;51.566;19.198;2023-04-27T11:25:10;101929.80;;;15.89;50.09
68712;BME280;55690;51.566;19.198;2023-04-27T11:29:12;101933.98;;;16.17;50.35
68712;BME280;55690;51.566;19.198;2023-04-27T11:33:15;101919.88;;;16.11;49.10
68712;BME280;55690;51.566;19.198;2023-04-27T11:37:26;101931.91;;;15.86;48.53
68712;BME280;55690;51.566;19.198;2023-04-27T11:41:34;101932.20;;;16.05;48.15
68712;BME280;55690;51.566;19.198;2023-04-27T11:45:41;101925.67;;;16.30;47.12
68712;BME280;55690;51.566;19.198;2023-04-27T11:49:55;101930.42;;;16.50;45.65
68712;BME280;55690;51.566;19.198;2023-04-27T11:54:04;101930.05;;;16.33;47.77
68712;BME280;55690;51.566;19.198;2023-04-27T11:58:14;101936.52;;;16.32;47.79
68712;BME280;55690;51.566;19.198;2023-04-27T12:02:16;101944.23;;;16.26;48.90
68712;BME280;55690;51.566;19.198;2023-04-27T12:06:25;101937.44;;;16.08;49.49
68712;BME280;55690;51.566;19.198;2023-04-27T12:10:26;101949.15;;;15.75;49.82
68712;BME280;55690;51.566;19.198;2023-04-27T12:14:28;101966.50;;;14.77;50.47
68712;BME280;55690;51.566;19.198;2023-04-27T12:18:29;101979.48;;;14.36;52.88
68712;BME280;55690;51.566;19.198;2023-04-27T12:22:31;101981.55;;;14.32;54.95
68712;BME280;55690;51.566;19.198;2023-04-27T12:26:33;101996.61;;;13.73;56.29
68712;BME280;55690;51.566;19.198;2023-04-27T12:30:35;101988.84;;;14.06;56.57
68712;BME280;55690;51.566;19.198;2023-04-27T12:34:36;101990.09;;;14.27;56.91
68712;BME280;55690;51.566;19.198;2023-04-27T12:38:39;101995.08;;;14.08;56.77
68712;BME280;55690;51.566;19.198;2023-04-27T12:42:41;102001.45;;;14.21;57.04
68712;BME280;55690;51.566;19.198;2023-04-27T12:46:44;101992.59;;;14.30;56.22
68712;BME280;55690;51.566;19.198;2023-04-27T12:50:47;101988.28;;;14.53;55.72
68712;BME280;55690;51.566;19.198;2023-04-27T12:54:49;101982.41;;;14.32;54.97
68712;BME280;55690;51.566;19.198;2023-04-27T12:58:58;101978.30;;;14.78;55.05
68712;BME280;55690;51.566;19.198;2023-04-27T13:03:00;101983.12;;;14.74;54.29
68712;BME280;55690;51.566;19.198;2023-04-27T13:07:02;101990.89;;;14.80;52.67
68712;BME280;55690;51.566;19.198;2023-04-27T13:11:03;101981.84;;;14.67;52.30
68712;BME280;55690;51.566;19.198;2023-04-27T13:15:06;101979.06;;;15.05;51.30
68712;BME280;55690;51.566;19.198;2023-04-27T13:19:08;101983.86;;;15.14;50.37
68712;BME280;55690;51.566;19.198;2023-04-27T13:23:10;101983.24;;;14.47;49.09
68712;BME280;55690;51.566;19.198;2023-04-27T13:27:11;101980.20;;;14.64;49.16
68712;BME280;55690;51.566;19.198;2023-04-27T13:31:13;101976.77;;;14.99;48.97
68712;BME280;55690;51.566;19.198;2023-04-27T13:35:14;101970.20;;;15.38;47.34
68712;BME280;55690;51.566;19.198;2023-04-27T13:39:16;101970.17;;;15.51;46.91
68712;BME280;55690;51.566;19.198;2023-04-27T13:43:17;101969.09;;;15.77;47.92
68712;BME280;55690;51.566;19.198;2023-04-27T13:47:19;101972.55;;;14.70;47.93
68712;BME280;55690;51.566;19.198;2023-04-27T13:51:20;101985.61;;;15.52;49.22
68712;BME280;55690;51.566;19.198;2023-04-27T13:55:22;101986.48;;;15.52;48.06
68712;BME280;55690;51.566;19.198;2023-04-27T13:59:23;101988.91;;;16.16;49.24
68712;BME280;55690;51.566;19.198;2023-04-27T14:03:25;101980.24;;;15.50;49.75
68712;BME280;55690;51.566;19.198;2023-04-27T14:07:27;101988.02;;;15.80;50.27
68712;BME280;55690;51.566;19.198;2023-04-27T14:11:31;101993.84;;;15.76;50.22
68712;BME280;55690;51.566;19.198;2023-04-27T14:15:32;101987.73;;;15.96;50.73
68712;BME280;55690;51.566;19.198;2023-04-27T14:19:37;101989.52;;;15.60;50.42
68712;BME280;55690;51.566;19.198;2023-04-27T14:23:38;101988.98;;;15.55;51.17
68712;BME280;55690;51.566;19.198;2023-04-27T14:27:40;101997.01;;;15.58;51.40
68712;BME280;55690;51.566;19.198;2023-04-27T14:31:42;101986.94;;;15.46;51.52
68712;BME280;55690;51.566;19.198;2023-04-27T14:35:43;101995.94;;;15.36;51.43
68712;BME280;55690;51.566;19.198;2023-04-27T14:39:45;102010.28;;;15.39;51.64
68712;BME280;55690;51.566;19.198;2023-04-27T14:43:46;102015.06;;;14.99;51.97
68712;BME280;55690;51.566;19.198;2023-04-27T14:47:49;102029.33;;;14.26;55.29
68712;BME280;55690;51.566;19.198;2023-04-27T14:51:50;102046.81;;;13.97;57.36
68712;BME280;55690;51.566;19.198;2023-04-27T14:55:52;102045.05;;;13.96;57.45
68712;BME280;55690;51.566;19.198;2023-04-27T14:59:54;102030.73;;;14.19;57.17
68712;BME280;55690;51.566;19.198;2023-04-27T15:03:56;102041.33;;;13.84;57.29
68712;BME280;55690;51.566;19.198;2023-04-27T15:07:58;102031.25;;;14.51;55.80
68712;BME280;55690;51.566;19.198;2023-04-27T15:12:01;102034.00;;;14.64;55.67
68712;BME280;55690;51.566;19.198;2023-04-27T15:16:05;102033.74;;;14.42;55.97
68712;BME280;55690;51.566;19.198;2023-04-27T15:20:07;102043.19;;;14.63;56.04
68712;BME280;55690;51.566;19.198;2023-04-27T15:24:10;102031.80;;;14.82;55.06
68712;BME280;55690;51.566;19.198;2023-04-27T15:28:12;102031.91;;;15.06;54.72
68712;BME280;55690;51.566;19.198;2023-04-27T15:32:14;102031.47;;;14.99;53.62
68712;BME280;55690;51.566;19.198;2023-04-27T15:36:16;102024.20;;;15.23;52.77
68712;BME280;55690;51.566;19.198;2023-04-27T15:40:17;102030.38;;;15.14;52.80
68712;BME280;55690;51.566;19.198;2023-04-27T15:44:23;102021.08;;;14.91;52.98
68712;BME280;55690;51.566;19.198;2023-04-27T15:48:29;102024.91;;;14.89;52.94
68712;BME280;55690;51.566;19.198;2023-04-27T15:52:35;102026.01;;;14.86;52.45
68712;BME280;55690;51.566;19.198;2023-04-27T15:56:41;102026.46;;;14.68;52.42
68712;BME280;55690;51.566;19.198;2023-04-27T16:00:48;102028.09;;;14.95;52.93
68712;BME280;55690;51.566;19.198;2023-04-27T16:04:54;102026.12;;;14.85;53.17
68712;BME280;55690;51.566;19.198;2023-04-27T16:09:00;102031.38;;;14.62;53.16
68712;BME280;55690;51.566;19.198;2023-04-27T16:13:06;102041.95;;;14.42;53.75
68712;BME280;55690;51.566;19.198;2023-04-27T16:17:12;102047.59;;;14.26;55.43
68712;BME280;55690;51.566;19.198;2023-04-27T16:21:18;102046.02;;;13.82;55.91
68712;BME280;55690;51.566;19.198;2023-04-27T16:25:25;102069.44;;;13.72;57.97
68712;BME280;55690;51.566;19.198;2023-04-27T16:29:31;102063.27;;;13.83;57.37
68712;BME280;55690;51.566;19.198;2023-04-27T16:33:37;102057.73;;;13.97;56.48
68712;BME280;55690;51.566;19.198;2023-04-27T16:37:43;102049.65;;;14.35;56.54
68712;BME280;55690;51.566;19.198;2023-04-27T16:41:49;102043.09;;;14.38;55.69
68712;BME280;55690;51.566;19.198;2023-04-27T16:45:55;102044.74;;;14.40;55.81
68712;BME280;55690;51.566;19.198;2023-04-27T16:50:02;102046.60;;;14.40;55.74
68712;BME280;55690;51.566;19.198;2023-04-27T16:54:08;102052.70;;;14.57;56.07
68712;BME280;55690;51.566;19.198;2023-04-27T16:58:14;102044.80;;;14.53;55.24
68712;BME280;55690;51.566;19.198;2023-04-27T17:02:20;102042.99;;;14.39;56.40
68712;BME280;55690;51.566;19.198;2023-04-27T17:06:27;102045.92;;;14.63;56.66
68712;BME280;55690;51.566;19.198;2023-04-27T17:10:33;102046.80;;;14.63;56.13
68712;BME280;55690;51.566;19.198;2023-04-27T17:14:39;102053.91;;;14.66;56.22
68712;BME280;55690;51.566;19.198;2023-04-27T17:18:45;102049.62;;;14.49;56.75
68712;BME280;55690;51.566;19.198;2023-04-27T17:22:51;102044.67;;;14.42;56.74
68712;BME280;55690;51.566;19.198;2023-04-27T17:26:58;102048.62;;;14.50;56.79
68712;BME280;55690;51.566;19.198;2023-04-27T17:31:04;102049.76;;;14.33;56.56
68712;BME280;55690;51.566;19.198;2023-04-27T17:35:10;102055.61;;;14.42;56.71
68712;BME280;55690;51.566;19.198;2023-04-27T17:39:16;102054.34;;;14.33;56.68
68712;BME280;55690;51.566;19.198;2023-04-27T17:43:22;102051.66;;;14.06;57.45
68712;BME280;55690;51.566;19.198;2023-04-27T17:47:28;102068.36;;;13.75;58.84
68712;BME280;55690;51.566;19.198;2023-04-27T17:51:35;102072.28;;;13.56;59.31
68712;BME280;55690;51.566;19.198;2023-04-27T17:55:44;102076.33;;;13.37;59.95
68712;BME280;55690;51.566;19.198;2023-04-27T17:59:47;102071.27;;;13.16;60.71
68712;BME280;55690;51.566;19.198;2023-04-27T18:03:53;102081.95;;;12.91;60.88
68712;BME280;55690;51.566;19.198;2023-04-27T18:07:59;102082.70;;;12.79;60.99
68712;BME280;55690;51.566;19.198;2023-04-27T18:12:06;102078.47;;;12.59;62.36
68712;BME280;55690;51.566;19.198;2023-04-27T18:16:12;102078.45;;;12.45;62.54
68712;BME280;55690;51.566;19.198;2023-04-27T18:20:18;102093.59;;;12.35;63.42
68712;BME280;55690;51.566;19.198;2023-04-27T18:24:24;102076.67;;;12.14;62.91
68712;BME280;55690;51.566;19.198;2023-04-27T18:28:30;102094.46;;;12.05;63.77
68712;BME280;55690;51.566;19.198;2023-04-27T18:32:36;102098.76;;;11.93;64.00
68712;BME280;55690;51.566;19.198;2023-04-27T18:36:43;102101.80;;;11.72;64.49
68712;BME280;55690;51.566;19.198;2023-04-27T18:40:50;102100.74;;;11.43;64.74
68712;BME280;55690;51.566;19.198;2023-04-27T18:44:56;102105.47;;;11.39;65.81
68712;BME280;55690;51.566;19.198;2023-04-27T18:49:01;102102.52;;;11.11;65.41
68712;BME280;55690;51.566;19.198;2023-04-27T18:53:08;102113.90;;;11.02;65.65
68712;BME280;55690;51.566;19.198;2023-04-27T18:57:13;102112.11;;;10.68;66.59
68712;BME280;55690;51.566;19.198;2023-04-27T19:01:24;102123.04;;;10.49;67.11
68712;BME280;55690;51.566;19.198;2023-04-27T19:05:26;102123.86;;;10.33;67.73
68712;BME280;55690;51.566;19.198;2023-04-27T19:09:32;102124.59;;;10.18;68.30
68712;BME280;55690;51.566;19.198;2023-04-27T19:13:39;102119.04;;;10.21;67.85
68712;BME280;55690;51.566;19.198;2023-04-27T19:17:45;102131.80;;;10.00;68.17
68712;BME280;55690;51.566;19.198;2023-04-27T19:21:51;102135.88;;;9.92;68.17
68712;BME280;55690;51.566;19.198;2023-04-27T19:25:57;102128.40;;;9.78;68.40
68712;BME280;55690;51.566;19.198;2023-04-27T19:30:04;102119.52;;;9.75;68.59
68712;BME280;55690;51.566;19.198;2023-04-27T19:34:09;102133.27;;;9.53;68.58
68712;BME280;55690;51.566;19.198;2023-04-27T19:38:15;102133.08;;;9.56;68.96
68712;BME280;55690;51.566;19.198;2023-04-27T19:42:21;102131.13;;;9.41;69.35
68712;BME280;55690;51.566;19.198;2023-04-27T19:46:28;102131.05;;;9.42;68.75
68712;BME280;55690;51.566;19.198;2023-04-27T19:50:34;102139.75;;;9.30;68.96
68712;BME280;55690;51.566;19.198;2023-04-27T19:54:40;102131.55;;;9.31;69.00
68712;BME280;55690;51.566;19.198;2023-04-27T19:58:46;102139.53;;;9.53;68.04
68712;BME280;55690;51.566;19.198;2023-04-27T20:02:52;102138.52;;;9.75;67.55
68712;BME280;55690;51.566;19.198;2023-04-27T20:06:58;102138.38;;;9.78;67.43
68712;BME280;55690;51.566;19.198;2023-04-27T20:11:05;102130.30;;;9.57;67.45
68712;BME280;55690;51.566;19.198;2023-04-27T20:15:11;102144.81;;;9.56;67.76
68712;BME280;55690;51.566;19.198;2023-04-27T20:19:17;102141.38;;;9.72;67.22
68712;BME280;55690;51.566;19.198;2023-04-27T20:23:23;102146.21;;;9.65;67.47
68712;BME280;55690;51.566;19.198;2023-04-27T20:27:29;102151.27;;;9.73;67.45
68712;BME280;55690;51.566;19.198;2023-04-27T20:31:36;102155.89;;;9.71;67.32
68712;BME280;55690;51.566;19.198;2023-04-27T20:35:42;102149.80;;;9.65;67.48
68712;BME280;55690;51.566;19.198;2023-04-27T20:39:48;102150.17;;;9.58;67.64
68712;BME280;55690;51.566;19.198;2023-04-27T20:43:54;102148.49;;;9.74;67.52
68712;BME280;55690;51.566;19.198;2023-04-27T20:48:00;102150.48;;;9.52;67.73
68712;BME280;55690;51.566;19.198;2023-04-27T20:52:06;102153.03;;;9.36;67.29
68712;BME280;55690;51.566;19.198;2023-04-27T20:56:13;102161.31;;;9.13;67.96
68712;BME280;55690;51.566;19.198;2023-04-27T21:00:19;102154.17;;;8.91;68.61
68712;BME280;55690;51.566;19.198;2023-04-27T21:04:25;102155.40;;;9.05;68.06
68712;BME280;55690;51.566;19.198;2023-04-27T21:08:31;102158.44;;;8.97;68.63
68712;BME280;55690;51.566;19.198;2023-04-27T21:12:37;102160.41;;;8.93;68.04
68712;BME280;55690;51.566;19.198;2023-04-27T21:16:44;102162.98;;;8.96;68.74
68712;BME280;55690;51.566;19.198;2023-04-27T21:20:50;102158.70;;;8.91;69.50